sensor_id;sensor_type;location;lat;lon;timestamp;temperature;humidity
9425;DHT22;17139;52.140;11.636;2023-09-19T00:00:16;18.20;61.00
9425;DHT22;17139;52.140;11.636;2023-09-19T00:02:45;18.10;60.80
9425;DHT22;17139;52.140;11.636;2023-09-19T00:05:13;18.00;60.70
9425;DHT22;17139;52.140;11.636;2023-09-19T00:07:40;18.80;57.90
9425;DHT22;17139;52.140;11.636;2023-09-19T00:10:08;18.50;58.80
9425;DHT22;17139;52.140;11.636;2023-09-19T00:12:36;19.10;56.90
9425;DHT22;17139;52.140;11.636;2023-09-19T00:15:06;18.60;57.90
9425;DHT22;17139;52.140;11.636;2023-09-19T00:17:33;18.30;58.70
9425;DHT22;17139;52.140;11.636;2023-09-19T00:20:00;18.10;59.10
9425;DHT22;17139;52.140;11.636;2023-09-19T00:22:40;17.90;59.40
9425;DHT22;17139;52.140;11.636;2023-09-19T00:25:08;17.80;59.60
9425;DHT22;17139;52.140;11.636;2023-09-19T00:27:37;17.70;59.60
9425;DHT22;17139;52.140;11.636;2023-09-19T00:30:10;18.30;57.80
9425;DHT22;17139;52.140;11.636;2023-09-19T00:32:42;18.10;58.40
9425;DHT22;17139;52.140;11.636;2023-09-19T00:35:10;17.80;58.70
9425;DHT22;17139;52.140;11.636;2023-09-19T00:37:37;17.60;59.10
9425;DHT22;17139;52.140;11.636;2023-09-19T00:40:06;17.50;59.20
9425;DHT22;17139;52.140;11.636;2023-09-19T00:42:36;17.40;59.30
9425;DHT22;17139;52.140;11.636;2023-09-19T00:45:04;17.40;59.50
9425;DHT22;17139;52.140;11.636;2023-09-19T00:47:33;17.20;59.50
9425;DHT22;17139;52.140;11.636;2023-09-19T00:50:00;17.20;59.50
9425;DHT22;17139;52.140;11.636;2023-09-19T00:52:29;17.10;59.60
9425;DHT22;17139;52.140;11.636;2023-09-19T00:54:57;17.10;59.60
9425;DHT22;17139;52.140;11.636;2023-09-19T00:57:25;17.10;59.60
9425;DHT22;17139;52.140;11.636;2023-09-19T00:59:54;17.10;59.50
9425;DHT22;17139;52.140;11.636;2023-09-19T01:02:22;17.10;59.70
9425;DHT22;17139;52.140;11.636;2023-09-19T01:04:50;17.00;59.70
9425;DHT22;17139;52.140;11.636;2023-09-19T01:07:19;17.00;59.70
9425;DHT22;17139;52.140;11.636;2023-09-19T01:09:46;16.90;59.70
9425;DHT22;17139;52.140;11.636;2023-09-19T01:12:17;16.90;60.40
9425;DHT22;17139;52.140;11.636;2023-09-19T01:14:55;16.90;59.80
9425;DHT22;17139;52.140;11.636;2023-09-19T01:17:32;17.00;59.50
9425;DHT22;17139;52.140;11.636;2023-09-19T01:20:19;16.90;59.40
9425;DHT22;17139;52.140;11.636;2023-09-19T01:23:07;17.50;58.40
9425;DHT22;17139;52.140;11.636;2023-09-19T01:26:10;17.20;58.70
9425;DHT22;17139;52.140;11.636;2023-09-19T01:28:53;17.00;59.20
9425;DHT22;17139;52.140;11.636;2023-09-19T01:31:23;16.80;59.60
9425;DHT22;17139;52.140;11.636;2023-09-19T01:33:58;16.70;59.80
9425;DHT22;17139;52.140;11.636;2023-09-19T01:36:30;16.60;59.80
9425;DHT22;17139;52.140;11.636;2023-09-19T01:38:59;16.60;60.00
9425;DHT22;17139;52.140;11.636;2023-09-19T01:41:39;16.60;60.00
9425;DHT22;17139;52.140;11.636;2023-09-19T01:44:13;16.90;59.70
9425;DHT22;17139;52.140;11.636;2023-09-19T01:46:45;16.70;59.50
9425;DHT22;17139;52.140;11.636;2023-09-19T01:49:22;16.60;59.80
9425;DHT22;17139;52.140;11.636;2023-09-19T01:52:00;16.50;59.80
9425;DHT22;17139;52.140;11.636;2023-09-19T01:54:33;16.50;60.00
9425;DHT22;17139;52.140;11.636;2023-09-19T01:57:09;16.50;60.10
9425;DHT22;17139;52.140;11.636;2023-09-19T01:59:45;16.40;60.00
9425;DHT22;17139;52.140;11.636;2023-09-19T02:02:14;16.40;60.00
9425;DHT22;17139;52.140;11.636;2023-09-19T02:04:43;16.70;59.80
9425;DHT22;17139;52.140;11.636;2023-09-19T02:07:10;16.60;59.40
9425;DHT22;17139;52.140;11.636;2023-09-19T02:09:37;16.90;59.30
9425;DHT22;17139;52.140;11.636;2023-09-19T02:12:05;16.70;59.10
9425;DHT22;17139;52.140;11.636;2023-09-19T02:14:32;16.60;59.50
9425;DHT22;17139;52.140;11.636;2023-09-19T02:17:01;16.50;59.60
9425;DHT22;17139;52.140;11.636;2023-09-19T02:19:32;16.50;59.80
9425;DHT22;17139;52.140;11.636;2023-09-19T02:22:00;16.40;59.80
9425;DHT22;17139;52.140;11.636;2023-09-19T02:24:28;16.40;59.80
9425;DHT22;17139;52.140;11.636;2023-09-19T02:26:56;16.40;59.90
9425;DHT22;17139;52.140;11.636;2023-09-19T02:29:24;16.90;59.50
9425;DHT22;17139;52.140;11.636;2023-09-19T02:31:52;16.70;59.20
9425;DHT22;17139;52.140;11.636;2023-09-19T02:34:21;17.10;58.80
9425;DHT22;17139;52.140;11.636;2023-09-19T02:36:50;16.90;58.90
9425;DHT22;17139;52.140;11.636;2023-09-19T02:39:19;16.60;59.20
9425;DHT22;17139;52.140;11.636;2023-09-19T02:41:46;16.50;59.50
9425;DHT22;17139;52.140;11.636;2023-09-19T02:44:13;16.40;59.70
9425;DHT22;17139;52.140;11.636;2023-09-19T02:46:40;16.30;59.80
9425;DHT22;17139;52.140;11.636;2023-09-19T02:49:09;16.30;59.90
9425;DHT22;17139;52.140;11.636;2023-09-19T02:51:36;16.20;59.80
9425;DHT22;17139;52.140;11.636;2023-09-19T02:54:05;16.70;59.60
9425;DHT22;17139;52.140;11.636;2023-09-19T02:56:33;16.50;59.20
9425;DHT22;17139;52.140;11.636;2023-09-19T02:59:01;16.90;59.20
9425;DHT22;17139;52.140;11.636;2023-09-19T03:01:29;16.60;59.00
9425;DHT22;17139;52.140;11.636;2023-09-19T03:03:56;16.40;59.40
9425;DHT22;17139;52.140;11.636;2023-09-19T03:06:24;16.30;59.70
9425;DHT22;17139;52.140;11.636;2023-09-19T03:08:51;16.20;59.80
9425;DHT22;17139;52.140;11.636;2023-09-19T03:11:19;16.20;59.90
9425;DHT22;17139;52.140;11.636;2023-09-19T03:13:52;16.10;60.00
9425;DHT22;17139;52.140;11.636;2023-09-19T03:16:19;16.10;60.00
9425;DHT22;17139;52.140;11.636;2023-09-19T03:18:47;16.10;59.80
9425;DHT22;17139;52.140;11.636;2023-09-19T03:21:15;16.40;59.80
9425;DHT22;17139;52.140;11.636;2023-09-19T03:23:43;16.30;59.50
9425;DHT22;17139;52.140;11.636;2023-09-19T03:26:11;16.10;59.70
9425;DHT22;17139;52.140;11.636;2023-09-19T03:28:41;16.00;59.80
9425;DHT22;17139;52.140;11.636;2023-09-19T03:31:09;15.90;59.90
9425;DHT22;17139;52.140;11.636;2023-09-19T03:33:37;15.80;59.90
9425;DHT22;17139;52.140;11.636;2023-09-19T03:36:04;15.80;60.00
9425;DHT22;17139;52.140;11.636;2023-09-19T03:38:32;15.70;60.00
9425;DHT22;17139;52.140;11.636;2023-09-19T03:41:00;16.60;58.80
9425;DHT22;17139;52.140;11.636;2023-09-19T03:43:27;16.30;58.70
9425;DHT22;17139;52.140;11.636;2023-09-19T03:45:56;16.90;58.10
9425;DHT22;17139;52.140;11.636;2023-09-19T03:48:23;16.50;58.40
9425;DHT22;17139;52.140;11.636;2023-09-19T03:50:50;16.20;59.10
9425;DHT22;17139;52.140;11.636;2023-09-19T03:53:18;15.90;59.50
9425;DHT22;17139;52.140;11.636;2023-09-19T03:55:45;15.80;59.70
9425;DHT22;17139;52.140;11.636;2023-09-19T03:58:13;15.70;59.80
9425;DHT22;17139;52.140;11.636;2023-09-19T04:00:40;15.60;59.90
9425;DHT22;17139;52.140;11.636;2023-09-19T04:03:08;15.80;61.00
9425;DHT22;17139;52.140;11.636;2023-09-19T04:05:44;15.70;59.80
9425;DHT22;17139;52.140;11.636;2023-09-19T04:08:11;16.20;59.40
9425;DHT22;17139;52.140;11.636;2023-09-19T04:10:38;16.00;59.20
9425;DHT22;17139;52.140;11.636;2023-09-19T04:13:05;15.70;59.50
9425;DHT22;17139;52.140;11.636;2023-09-19T04:15:33;15.60;59.90
9425;DHT22;17139;52.140;11.636;2023-09-19T04:18:00;15.40;60.10
9425;DHT22;17139;52.140;11.636;2023-09-19T04:20:30;15.40;60.30
9425;DHT22;17139;52.140;11.636;2023-09-19T04:22:57;15.30;60.30
9425;DHT22;17139;52.140;11.636;2023-09-19T04:25:25;15.40;60.70
9425;DHT22;17139;52.140;11.636;2023-09-19T04:27:53;15.50;60.80
9425;DHT22;17139;52.140;11.636;2023-09-19T04:30:20;15.70;60.90
9425;DHT22;17139;52.140;11.636;2023-09-19T04:32:47;15.70;60.30
9425;DHT22;17139;52.140;11.636;2023-09-19T04:35:16;15.80;60.30
9425;DHT22;17139;52.140;11.636;2023-09-19T04:37:44;16.70;59.10
9425;DHT22;17139;52.140;11.636;2023-09-19T04:40:13;17.20;57.80
9425;DHT22;17139;52.140;11.636;2023-09-19T04:42:43;16.80;58.40
9425;DHT22;17139;52.140;11.636;2023-09-19T04:45:10;17.40;57.30
9425;DHT22;17139;52.140;11.636;2023-09-19T04:47:38;17.00;58.00
9425;DHT22;17139;52.140;11.636;2023-09-19T04:50:07;17.70;56.80
9425;DHT22;17139;52.140;11.636;2023-09-19T04:52:39;17.20;57.60
9425;DHT22;17139;52.140;11.636;2023-09-19T04:55:10;16.90;58.20
9425;DHT22;17139;52.140;11.636;2023-09-19T04:57:43;17.20;57.40
9425;DHT22;17139;52.140;11.636;2023-09-19T05:00:12;16.80;57.90
9425;DHT22;17139;52.140;11.636;2023-09-19T05:02:41;16.50;58.60
9425;DHT22;17139;52.140;11.636;2023-09-19T05:05:09;16.60;58.50
9425;DHT22;17139;52.140;11.636;2023-09-19T05:07:36;16.40;58.60
9425;DHT22;17139;52.140;11.636;2023-09-19T05:10:04;16.80;57.40
9425;DHT22;17139;52.140;11.636;2023-09-19T05:12:34;16.40;57.90
9425;DHT22;17139;52.140;11.636;2023-09-19T05:15:02;16.10;58.40
9425;DHT22;17139;52.140;11.636;2023-09-19T05:17:29;16.10;58.60
9425;DHT22;17139;52.140;11.636;2023-09-19T05:19:57;15.90;58.50
9425;DHT22;17139;52.140;11.636;2023-09-19T05:22:27;15.70;58.80
9425;DHT22;17139;52.140;11.636;2023-09-19T05:24:54;16.00;58.70
9425;DHT22;17139;52.140;11.636;2023-09-19T05:27:21;15.80;58.60
9425;DHT22;17139;52.140;11.636;2023-09-19T05:29:50;16.30;57.70
9425;DHT22;17139;52.140;11.636;2023-09-19T05:32:18;16.00;58.00
9425;DHT22;17139;52.140;11.636;2023-09-19T05:34:46;15.90;58.60
9425;DHT22;17139;52.140;11.636;2023-09-19T05:37:13;15.70;58.80
9425;DHT22;17139;52.140;11.636;2023-09-19T05:39:41;15.60;58.90
9425;DHT22;17139;52.140;11.636;2023-09-19T05:42:09;15.60;59.00
9425;DHT22;17139;52.140;11.636;2023-09-19T05:44:36;15.90;58.80
9425;DHT22;17139;52.140;11.636;2023-09-19T05:47:05;15.80;58.50
9425;DHT22;17139;52.140;11.636;2023-09-19T05:49:34;16.20;57.70
9425;DHT22;17139;52.140;11.636;2023-09-19T05:52:04;16.00;57.80
9425;DHT22;17139;52.140;11.636;2023-09-19T05:54:32;15.90;58.30
9425;DHT22;17139;52.140;11.636;2023-09-19T05:56:59;15.70;58.40
9425;DHT22;17139;52.140;11.636;2023-09-19T05:59:27;15.70;58.60
9425;DHT22;17139;52.140;11.636;2023-09-19T06:01:54;15.80;58.80
9425;DHT22;17139;52.140;11.636;2023-09-19T06:04:23;15.80;58.70
9425;DHT22;17139;52.140;11.636;2023-09-19T06:06:51;16.70;56.40
9425;DHT22;17139;52.140;11.636;2023-09-19T06:09:18;16.50;56.80
9425;DHT22;17139;52.140;11.636;2023-09-19T06:11:45;16.30;57.10
9425;DHT22;17139;52.140;11.636;2023-09-19T06:14:12;16.20;57.60
9425;DHT22;17139;52.140;11.636;2023-09-19T06:16:40;16.10;57.90
9425;DHT22;17139;52.140;11.636;2023-09-19T06:19:07;15.90;57.90
9425;DHT22;17139;52.140;11.636;2023-09-19T06:21:36;15.90;58.10
9425;DHT22;17139;52.140;11.636;2023-09-19T06:24:03;15.80;58.00
9425;DHT22;17139;52.140;11.636;2023-09-19T06:26:30;15.90;58.00
9425;DHT22;17139;52.140;11.636;2023-09-19T06:28:57;15.90;58.20
9425;DHT22;17139;52.140;11.636;2023-09-19T06:31:25;16.00;58.10
9425;DHT22;17139;52.140;11.636;2023-09-19T06:33:52;16.10;57.90
9425;DHT22;17139;52.140;11.636;2023-09-19T06:36:19;16.10;57.90
9425;DHT22;17139;52.140;11.636;2023-09-19T06:38:48;16.30;57.60
9425;DHT22;17139;52.140;11.636;2023-09-19T06:41:17;16.10;57.40
9425;DHT22;17139;52.140;11.636;2023-09-19T06:43:44;16.00;57.70
9425;DHT22;17139;52.140;11.636;2023-09-19T06:46:11;15.90;58.00
9425;DHT22;17139;52.140;11.636;2023-09-19T06:48:38;16.30;57.10
9425;DHT22;17139;52.140;11.636;2023-09-19T06:51:06;16.10;57.30
9425;DHT22;17139;52.140;11.636;2023-09-19T06:53:33;16.50;56.40
9425;DHT22;17139;52.140;11.636;2023-09-19T06:56:02;17.00;55.30
9425;DHT22;17139;52.140;11.636;2023-09-19T06:58:30;16.50;56.00
9425;DHT22;17139;52.140;11.636;2023-09-19T07:00:58;16.20;56.90
9425;DHT22;17139;52.140;11.636;2023-09-19T07:03:25;16.10;57.40
9425;DHT22;17139;52.140;11.636;2023-09-19T07:05:54;15.90;57.60
9425;DHT22;17139;52.140;11.636;2023-09-19T07:08:21;16.20;57.00
9425;DHT22;17139;52.140;11.636;2023-09-19T07:10:48;16.10;57.30
9425;DHT22;17139;52.140;11.636;2023-09-19T07:13:19;16.70;55.80
9425;DHT22;17139;52.140;11.636;2023-09-19T07:15:46;16.40;56.40
9425;DHT22;17139;52.140;11.636;2023-09-19T07:18:16;16.00;56.90
9425;DHT22;17139;52.140;11.636;2023-09-19T07:20:44;15.90;57.40
9425;DHT22;17139;52.140;11.636;2023-09-19T07:23:14;15.70;57.60
9425;DHT22;17139;52.140;11.636;2023-09-19T07:25:42;15.60;57.70
9425;DHT22;17139;52.140;11.636;2023-09-19T07:28:09;15.50;57.70
9425;DHT22;17139;52.140;11.636;2023-09-19T07:30:37;16.00;56.30
9425;DHT22;17139;52.140;11.636;2023-09-19T07:33:05;15.90;56.60
9425;DHT22;17139;52.140;11.636;2023-09-19T07:35:32;15.80;56.90
9425;DHT22;17139;52.140;11.636;2023-09-19T07:38:00;15.70;57.00
9425;DHT22;17139;52.140;11.636;2023-09-19T07:40:28;15.70;56.70
9425;DHT22;17139;52.140;11.636;2023-09-19T07:42:55;15.70;56.70
9425;DHT22;17139;52.140;11.636;2023-09-19T07:45:22;15.70;56.80
9425;DHT22;17139;52.140;11.636;2023-09-19T07:47:52;15.70;56.50
9425;DHT22;17139;52.140;11.636;2023-09-19T07:50:19;15.80;56.50
9425;DHT22;17139;52.140;11.636;2023-09-19T07:52:47;15.80;56.50
9425;DHT22;17139;52.140;11.636;2023-09-19T07:55:16;16.20;54.90
9425;DHT22;17139;52.140;11.636;2023-09-19T07:57:45;16.10;55.40
9425;DHT22;17139;52.140;11.636;2023-09-19T08:00:13;16.10;55.80
9425;DHT22;17139;52.140;11.636;2023-09-19T08:02:41;16.00;55.90
9425;DHT22;17139;52.140;11.636;2023-09-19T08:05:10;15.90;55.60
9425;DHT22;17139;52.140;11.636;2023-09-19T08:07:38;15.90;55.80
9425;DHT22;17139;52.140;11.636;2023-09-19T08:10:07;16.70;52.80
9425;DHT22;17139;52.140;11.636;2023-09-19T08:12:39;16.70;53.00
9425;DHT22;17139;52.140;11.636;2023-09-19T08:15:12;16.60;53.50
9425;DHT22;17139;52.140;11.636;2023-09-19T08:17:39;16.40;54.00
9425;DHT22;17139;52.140;11.636;2023-09-19T08:20:09;16.30;54.50
9425;DHT22;17139;52.140;11.636;2023-09-19T08:22:43;16.20;54.50
9425;DHT22;17139;52.140;11.636;2023-09-19T08:25:12;16.20;54.80
9425;DHT22;17139;52.140;11.636;2023-09-19T08:27:39;16.20;54.90
9425;DHT22;17139;52.140;11.636;2023-09-19T08:30:07;16.30;54.90
9425;DHT22;17139;52.140;11.636;2023-09-19T08:32:34;16.30;54.80
9425;DHT22;17139;52.140;11.636;2023-09-19T08:35:01;16.40;53.90
9425;DHT22;17139;52.140;11.636;2023-09-19T08:37:31;16.40;54.30
9425;DHT22;17139;52.140;11.636;2023-09-19T08:39:58;16.50;54.60
9425;DHT22;17139;52.140;11.636;2023-09-19T08:42:25;16.50;54.60
9425;DHT22;17139;52.140;11.636;2023-09-19T08:44:52;16.50;54.50
9425;DHT22;17139;52.140;11.636;2023-09-19T08:47:26;16.60;54.40
9425;DHT22;17139;52.140;11.636;2023-09-19T08:50:00;16.60;54.30
9425;DHT22;17139;52.140;11.636;2023-09-19T08:52:34;17.10;51.90
9425;DHT22;17139;52.140;11.636;2023-09-19T08:55:06;17.00;53.00
9425;DHT22;17139;52.140;11.636;2023-09-19T08:57:36;17.40;50.80
9425;DHT22;17139;52.140;11.636;2023-09-19T09:00:08;17.10;52.20
9425;DHT22;17139;52.140;11.636;2023-09-19T09:02:38;16.90;52.80
9425;DHT22;17139;52.140;11.636;2023-09-19T09:05:07;16.80;53.20
9425;DHT22;17139;52.140;11.636;2023-09-19T09:07:37;16.80;53.40
9425;DHT22;17139;52.140;11.636;2023-09-19T09:10:05;16.70;53.40
9425;DHT22;17139;52.140;11.636;2023-09-19T09:12:33;16.80;52.90
9425;DHT22;17139;52.140;11.636;2023-09-19T09:15:03;16.90;53.40
9425;DHT22;17139;52.140;11.636;2023-09-19T09:17:31;17.50;50.90
9425;DHT22;17139;52.140;11.636;2023-09-19T09:19:58;17.30;51.90
9425;DHT22;17139;52.140;11.636;2023-09-19T09:22:25;17.10;52.40
9425;DHT22;17139;52.140;11.636;2023-09-19T09:24:55;16.90;52.70
9425;DHT22;17139;52.140;11.636;2023-09-19T09:27:24;17.00;53.00
9425;DHT22;17139;52.140;11.636;2023-09-19T09:29:52;17.00;53.10
9425;DHT22;17139;52.140;11.636;2023-09-19T09:32:22;17.00;53.10
9425;DHT22;17139;52.140;11.636;2023-09-19T09:34:51;17.20;53.30
9425;DHT22;17139;52.140;11.636;2023-09-19T09:37:19;17.50;51.00
9425;DHT22;17139;52.140;11.636;2023-09-19T09:39:51;17.50;52.00
9425;DHT22;17139;52.140;11.636;2023-09-19T09:42:33;17.50;52.10
9425;DHT22;17139;52.140;11.636;2023-09-19T09:45:15;17.60;52.30
9425;DHT22;17139;52.140;11.636;2023-09-19T09:47:44;17.50;52.30
9425;DHT22;17139;52.140;11.636;2023-09-19T09:50:29;17.50;52.40
9425;DHT22;17139;52.140;11.636;2023-09-19T09:53:19;17.50;52.60
9425;DHT22;17139;52.140;11.636;2023-09-19T09:56:00;17.50;52.40
9425;DHT22;17139;52.140;11.636;2023-09-19T09:58:30;18.00;50.60
9425;DHT22;17139;52.140;11.636;2023-09-19T10:00:58;17.80;51.50
9425;DHT22;17139;52.140;11.636;2023-09-19T10:03:32;17.80;51.90
9425;DHT22;17139;52.140;11.636;2023-09-19T10:06:05;17.80;52.00
9425;DHT22;17139;52.140;11.636;2023-09-19T10:08:58;17.70;52.40
9425;DHT22;17139;52.140;11.636;2023-09-19T10:11:29;17.90;52.50
9425;DHT22;17139;52.140;11.636;2023-09-19T10:14:00;17.80;52.30
9425;DHT22;17139;52.140;11.636;2023-09-19T10:16:32;17.90;52.30
9425;DHT22;17139;52.140;11.636;2023-09-19T10:19:02;18.20;50.40
9425;DHT22;17139;52.140;11.636;2023-09-19T10:21:31;18.10;51.20
9425;DHT22;17139;52.140;11.636;2023-09-19T10:23:59;18.10;51.50
9425;DHT22;17139;52.140;11.636;2023-09-19T10:26:30;18.10;51.50
9425;DHT22;17139;52.140;11.636;2023-09-19T10:28:59;18.10;51.70
9425;DHT22;17139;52.140;11.636;2023-09-19T10:31:28;18.20;51.90
9425;DHT22;17139;52.140;11.636;2023-09-19T10:33:56;18.20;52.00
9425;DHT22;17139;52.140;11.636;2023-09-19T10:36:24;18.70;49.50
9425;DHT22;17139;52.140;11.636;2023-09-19T10:38:53;18.60;50.40
9425;DHT22;17139;52.140;11.636;2023-09-19T10:41:22;19.00;48.00
9425;DHT22;17139;52.140;11.636;2023-09-19T10:43:51;18.80;49.70
9425;DHT22;17139;52.140;11.636;2023-09-19T10:46:21;18.60;50.40
9425;DHT22;17139;52.140;11.636;2023-09-19T10:48:50;18.60;50.80
9425;DHT22;17139;52.140;11.636;2023-09-19T10:51:22;18.60;50.90
9425;DHT22;17139;52.140;11.636;2023-09-19T10:53:52;18.60;51.00
9425;DHT22;17139;52.140;11.636;2023-09-19T10:56:24;18.70;51.30
9425;DHT22;17139;52.140;11.636;2023-09-19T10:59:05;19.40;47.50
9425;DHT22;17139;52.140;11.636;2023-09-19T11:01:45;19.20;49.20
9425;DHT22;17139;52.140;11.636;2023-09-19T11:04:30;19.10;49.80
9425;DHT22;17139;52.140;11.636;2023-09-19T11:07:04;19.00;50.20
9425;DHT22;17139;52.140;11.636;2023-09-19T11:09:44;18.90;50.20
9425;DHT22;17139;52.140;11.636;2023-09-19T11:12:11;19.00;50.00
9425;DHT22;17139;52.140;11.636;2023-09-19T11:14:40;19.80;46.40
9425;DHT22;17139;52.140;11.636;2023-09-19T11:17:34;19.80;46.60
9425;DHT22;17139;52.140;11.636;2023-09-19T11:20:22;19.60;48.10
9425;DHT22;17139;52.140;11.636;2023-09-19T11:23:20;20.10;45.80
9425;DHT22;17139;52.140;11.636;2023-09-19T11:25:50;19.70;47.70
9425;DHT22;17139;52.140;11.636;2023-09-19T11:28:32;19.40;48.50
9425;DHT22;17139;52.140;11.636;2023-09-19T11:30:59;19.40;49.10
9425;DHT22;17139;52.140;11.636;2023-09-19T11:33:48;19.40;49.50
9425;DHT22;17139;52.140;11.636;2023-09-19T11:36:35;19.50;49.70
9425;DHT22;17139;52.140;11.636;2023-09-19T11:39:04;19.70;47.80
9425;DHT22;17139;52.140;11.636;2023-09-19T11:41:55;19.70;49.00
9425;DHT22;17139;52.140;11.636;2023-09-19T11:44:33;19.90;47.00
9425;DHT22;17139;52.140;11.636;2023-09-19T11:47:06;20.30;46.10
9425;DHT22;17139;52.140;11.636;2023-09-19T11:49:34;20.00;47.70
9425;DHT22;17139;52.140;11.636;2023-09-19T11:52:03;19.90;48.40
9425;DHT22;17139;52.140;11.636;2023-09-19T11:54:32;19.90;48.60
9425;DHT22;17139;52.140;11.636;2023-09-19T11:57:00;19.80;48.70
9425;DHT22;17139;52.140;11.636;2023-09-19T11:59:30;19.80;48.80
9425;DHT22;17139;52.140;11.636;2023-09-19T12:02:00;20.00;47.20
9425;DHT22;17139;52.140;11.636;2023-09-19T12:04:36;19.90;48.30
9425;DHT22;17139;52.140;11.636;2023-09-19T12:07:05;19.90;48.30
9425;DHT22;17139;52.140;11.636;2023-09-19T12:09:39;19.90;48.50
9425;DHT22;17139;52.140;11.636;2023-09-19T12:12:08;19.90;48.70
9425;DHT22;17139;52.140;11.636;2023-09-19T12:14:38;19.90;48.60
9425;DHT22;17139;52.140;11.636;2023-09-19T12:17:07;19.90;48.90
9425;DHT22;17139;52.140;11.636;2023-09-19T12:19:36;20.70;44.50
9425;DHT22;17139;52.140;11.636;2023-09-19T12:22:03;20.50;45.50
9425;DHT22;17139;52.140;11.636;2023-09-19T12:24:31;20.20;46.70
9425;DHT22;17139;52.140;11.636;2023-09-19T12:27:01;20.00;47.20
9425;DHT22;17139;52.140;11.636;2023-09-19T12:29:30;19.90;47.50
9425;DHT22;17139;52.140;11.636;2023-09-19T12:31:58;19.80;47.90
9425;DHT22;17139;52.140;11.636;2023-09-19T12:34:30;19.90;48.20
9425;DHT22;17139;52.140;11.636;2023-09-19T12:37:09;19.90;48.00
9425;DHT22;17139;52.140;11.636;2023-09-19T12:39:42;20.00;48.00
9425;DHT22;17139;52.140;11.636;2023-09-19T12:42:10;19.90;48.10
9425;DHT22;17139;52.140;11.636;2023-09-19T12:44:41;20.70;44.30
9425;DHT22;17139;52.140;11.636;2023-09-19T12:47:11;20.40;46.00
9425;DHT22;17139;52.140;11.636;2023-09-19T12:50:09;20.20;46.80
9425;DHT22;17139;52.140;11.636;2023-09-19T12:52:46;20.10;47.10
9425;DHT22;17139;52.140;11.636;2023-09-19T12:55:25;20.00;47.60
9425;DHT22;17139;52.140;11.636;2023-09-19T12:58:00;20.00;47.70
9425;DHT22;17139;52.140;11.636;2023-09-19T13:00:35;20.20;46.10
9425;DHT22;17139;52.140;11.636;2023-09-19T13:03:16;20.20;47.10
9425;DHT22;17139;52.140;11.636;2023-09-19T13:05:52;20.70;43.80
9425;DHT22;17139;52.140;11.636;2023-09-19T13:08:25;20.40;45.70
9425;DHT22;17139;52.140;11.636;2023-09-19T13:11:04;20.20;46.40
9425;DHT22;17139;52.140;11.636;2023-09-19T13:13:36;20.10;46.60
9425;DHT22;17139;52.140;11.636;2023-09-19T13:16:03;20.00;46.90
9425;DHT22;17139;52.140;11.636;2023-09-19T13:18:42;19.90;47.20
9425;DHT22;17139;52.140;11.636;2023-09-19T13:21:11;19.90;47.00
9425;DHT22;17139;52.140;11.636;2023-09-19T13:23:43;20.70;43.30
9425;DHT22;17139;52.140;11.636;2023-09-19T13:26:10;20.40;45.20
9425;DHT22;17139;52.140;11.636;2023-09-19T13:28:38;20.20;45.90
9425;DHT22;17139;52.140;11.636;2023-09-19T13:31:05;20.10;46.40
9425;DHT22;17139;52.140;11.636;2023-09-19T13:33:33;20.10;46.60
9425;DHT22;17139;52.140;11.636;2023-09-19T13:36:01;20.10;47.00
9425;DHT22;17139;52.140;11.636;2023-09-19T13:38:28;20.20;47.30
9425;DHT22;17139;52.140;11.636;2023-09-19T13:40:57;20.20;47.20
9425;DHT22;17139;52.140;11.636;2023-09-19T13:43:26;20.30;47.00
9425;DHT22;17139;52.140;11.636;2023-09-19T13:45:54;21.10;43.40
9425;DHT22;17139;52.140;11.636;2023-09-19T13:48:23;20.80;45.20
9425;DHT22;17139;52.140;11.636;2023-09-19T13:50:50;21.20;42.90
9425;DHT22;17139;52.140;11.636;2023-09-19T13:53:17;20.80;44.90
9425;DHT22;17139;52.140;11.636;2023-09-19T13:55:45;20.60;45.80
9425;DHT22;17139;52.140;11.636;2023-09-19T13:58:13;20.50;46.10
9425;DHT22;17139;52.140;11.636;2023-09-19T14:00:42;20.80;44.40
9425;DHT22;17139;52.140;11.636;2023-09-19T14:03:09;20.70;45.80
9425;DHT22;17139;52.140;11.636;2023-09-19T14:05:37;21.00;44.60
9425;DHT22;17139;52.140;11.636;2023-09-19T14:08:05;20.80;45.60
9425;DHT22;17139;52.140;11.636;2023-09-19T14:10:32;20.90;44.60
9425;DHT22;17139;52.140;11.636;2023-09-19T14:13:00;20.70;45.70
9425;DHT22;17139;52.140;11.636;2023-09-19T14:15:29;20.60;46.00
9425;DHT22;17139;52.140;11.636;2023-09-19T14:17:56;20.50;46.10
9425;DHT22;17139;52.140;11.636;2023-09-19T14:20:25;20.40;46.30
9425;DHT22;17139;52.140;11.636;2023-09-19T14:22:53;20.40;46.40
9425;DHT22;17139;52.140;11.636;2023-09-19T14:25:20;20.50;46.70
9425;DHT22;17139;52.140;11.636;2023-09-19T14:27:48;21.10;43.30
9425;DHT22;17139;52.140;11.636;2023-09-19T14:30:15;20.80;45.10
9425;DHT22;17139;52.140;11.636;2023-09-19T14:32:45;21.00;42.70
9425;DHT22;17139;52.140;11.636;2023-09-19T14:35:12;20.70;44.40
9425;DHT22;17139;52.140;11.636;2023-09-19T14:37:40;20.50;45.30
9425;DHT22;17139;52.140;11.636;2023-09-19T14:40:08;20.40;45.80
9425;DHT22;17139;52.140;11.636;2023-09-19T14:42:38;20.30;46.00
9425;DHT22;17139;52.140;11.636;2023-09-19T14:45:06;20.30;46.30
9425;DHT22;17139;52.140;11.636;2023-09-19T14:47:33;20.50;44.30
9425;DHT22;17139;52.140;11.636;2023-09-19T14:50:03;20.30;45.40
9425;DHT22;17139;52.140;11.636;2023-09-19T14:52:32;20.90;42.50
9425;DHT22;17139;52.140;11.636;2023-09-19T14:54:59;20.50;44.20
9425;DHT22;17139;52.140;11.636;2023-09-19T14:57:27;20.30;45.20
9425;DHT22;17139;52.140;11.636;2023-09-19T14:59:55;20.20;45.40
9425;DHT22;17139;52.140;11.636;2023-09-19T15:02:22;20.20;45.80
9425;DHT22;17139;52.140;11.636;2023-09-19T15:04:49;20.20;46.00
9425;DHT22;17139;52.140;11.636;2023-09-19T15:07:18;20.30;45.20
9425;DHT22;17139;52.140;11.636;2023-09-19T15:09:45;20.20;45.50
9425;DHT22;17139;52.140;11.636;2023-09-19T15:12:12;20.60;43.70
9425;DHT22;17139;52.140;11.636;2023-09-19T15:14:40;20.40;44.60
9425;DHT22;17139;52.140;11.636;2023-09-19T15:17:08;20.30;45.20
9425;DHT22;17139;52.140;11.636;2023-09-19T15:19:35;20.10;45.30
9425;DHT22;17139;52.140;11.636;2023-09-19T15:22:04;20.10;45.60
9425;DHT22;17139;52.140;11.636;2023-09-19T15:24:33;20.00;45.50
9425;DHT22;17139;52.140;11.636;2023-09-19T15:27:00;19.90;45.80
9425;DHT22;17139;52.140;11.636;2023-09-19T15:29:27;20.60;42.40
9425;DHT22;17139;52.140;11.636;2023-09-19T15:31:55;20.30;44.20
9425;DHT22;17139;52.140;11.636;2023-09-19T15:34:27;20.10;44.90
9425;DHT22;17139;52.140;11.636;2023-09-19T15:36:54;20.50;42.80
9425;DHT22;17139;52.140;11.636;2023-09-19T15:39:22;20.20;44.30
9425;DHT22;17139;52.140;11.636;2023-09-19T15:41:50;20.10;45.00
9425;DHT22;17139;52.140;11.636;2023-09-19T15:44:18;20.00;45.30
9425;DHT22;17139;52.140;11.636;2023-09-19T15:46:46;19.90;45.50